sensor_id;sensor_type;location;lat;lon;timestamp;P1;durP1;ratioP1;P2;durP2;ratioP2
45618;SDS011;31343;47.520;19.144;2023-08-24T00:01:10;4.55;;;2.63;;
45618;SDS011;31343;47.520;19.144;2023-08-24T00:03:39;2.75;;;1.83;;
45618;SDS011;31343;47.520;19.144;2023-08-24T00:06:05;3.45;;;2.20;;
45618;SDS011;31343;47.520;19.144;2023-08-24T00:08:31;2.45;;;1.88;;
45618;SDS011;31343;47.520;19.144;2023-08-24T00:10:57;2.88;;;2.05;;
45618;SDS011;31343;47.520;19.144;2023-08-24T00:13:23;3.08;;;1.95;;
45618;SDS011;31343;47.520;19.144;2023-08-24T00:15:49;4.03;;;2.50;;
45618;SDS011;31343;47.520;19.144;2023-08-24T00:18:15;3.65;;;2.30;;
45618;SDS011;31343;47.520;19.144;2023-08-24T00:20:43;4.05;;;2.92;;
45618;SDS011;31343;47.520;19.144;2023-08-24T00:23:10;4.03;;;2.50;;
45618;SDS011;31343;47.520;19.144;2023-08-24T00:25:36;2.67;;;1.90;;
45618;SDS011;31343;47.520;19.144;2023-08-24T00:28:01;3.10;;;2.05;;
45618;SDS011;31343;47.520;19.144;2023-08-24T00:30:27;3.17;;;2.17;;
45618;SDS011;31343;47.520;19.144;2023-08-24T00:32:53;3.72;;;2.20;;
45618;SDS011;31343;47.520;19.144;2023-08-24T00:35:19;4.30;;;2.97;;
45618;SDS011;31343;47.520;19.144;2023-08-24T00:37:45;2.92;;;2.35;;
45618;SDS011;31343;47.520;19.144;2023-08-24T00:40:10;3.00;;;1.85;;
45618;SDS011;31343;47.520;19.144;2023-08-24T00:42:39;2.67;;;1.92;;
45618;SDS011;31343;47.520;19.144;2023-08-24T00:45:07;3.00;;;1.90;;
45618;SDS011;31343;47.520;19.144;2023-08-24T00:47:34;3.08;;;2.05;;
45618;SDS011;31343;47.520;19.144;2023-08-24T00:50:02;3.20;;;2.08;;
45618;SDS011;31343;47.520;19.144;2023-08-24T00:52:29;2.67;;;1.83;;
45618;SDS011;31343;47.520;19.144;2023-08-24T00:54:57;4.38;;;2.55;;
45618;SDS011;31343;47.520;19.144;2023-08-24T00:57:27;3.55;;;2.03;;
45618;SDS011;31343;47.520;19.144;2023-08-24T00:59:53;3.30;;;1.92;;
45618;SDS011;31343;47.520;19.144;2023-08-24T01:02:23;2.90;;;1.98;;
45618;SDS011;31343;47.520;19.144;2023-08-24T01:04:48;4.05;;;2.75;;
45618;SDS011;31343;47.520;19.144;2023-08-24T01:07:15;3.53;;;2.05;;
45618;SDS011;31343;47.520;19.144;2023-08-24T01:09:41;3.30;;;2.45;;
45618;SDS011;31343;47.520;19.144;2023-08-24T01:15:18;3.28;;;2.22;;
45618;SDS011;31343;47.520;19.144;2023-08-24T01:17:46;3.85;;;2.60;;
45618;SDS011;31343;47.520;19.144;2023-08-24T01:20:12;3.25;;;2.10;;
45618;SDS011;31343;47.520;19.144;2023-08-24T01:25:32;3.63;;;2.10;;
45618;SDS011;31343;47.520;19.144;2023-08-24T01:28:04;4.75;;;2.83;;
45618;SDS011;31343;47.520;19.144;2023-08-24T01:30:32;3.42;;;2.30;;
45618;SDS011;31343;47.520;19.144;2023-08-24T01:33:03;3.97;;;2.50;;
45618;SDS011;31343;47.520;19.144;2023-08-24T01:35:30;2.90;;;1.95;;
45618;SDS011;31343;47.520;19.144;2023-08-24T01:37:56;4.47;;;3.35;;
45618;SDS011;31343;47.520;19.144;2023-08-24T01:40:30;4.05;;;2.55;;
45618;SDS011;31343;47.520;19.144;2023-08-24T01:43:16;2.75;;;2.25;;
45618;SDS011;31343;47.520;19.144;2023-08-24T01:45:45;3.17;;;2.00;;
45618;SDS011;31343;47.520;19.144;2023-08-24T01:48:12;3.65;;;2.53;;
45618;SDS011;31343;47.520;19.144;2023-08-24T01:50:39;4.22;;;2.53;;
45618;SDS011;31343;47.520;19.144;2023-08-24T01:53:07;4.05;;;2.40;;
45618;SDS011;31343;47.520;19.144;2023-08-24T01:55:33;2.33;;;1.88;;
45618;SDS011;31343;47.520;19.144;2023-08-24T01:57:59;3.75;;;2.35;;
45618;SDS011;31343;47.520;19.144;2023-08-24T02:00:25;3.75;;;2.20;;
45618;SDS011;31343;47.520;19.144;2023-08-24T02:02:51;2.92;;;2.17;;
45618;SDS011;31343;47.520;19.144;2023-08-24T02:05:17;3.42;;;2.28;;
45618;SDS011;31343;47.520;19.144;2023-08-24T02:07:43;6.00;;;3.33;;
45618;SDS011;31343;47.520;19.144;2023-08-24T02:10:08;4.82;;;2.42;;
45618;SDS011;31343;47.520;19.144;2023-08-24T02:12:34;4.35;;;2.55;;
45618;SDS011;31343;47.520;19.144;2023-08-24T02:15:00;4.53;;;2.92;;
45618;SDS011;31343;47.520;19.144;2023-08-24T02:17:26;3.03;;;2.13;;
45618;SDS011;31343;47.520;19.144;2023-08-24T02:19:52;3.67;;;2.42;;
45618;SDS011;31343;47.520;19.144;2023-08-24T02:22:17;3.97;;;3.17;;
45618;SDS011;31343;47.520;19.144;2023-08-24T02:24:43;3.85;;;2.45;;
45618;SDS011;31343;47.520;19.144;2023-08-24T02:27:09;3.78;;;2.80;;
45618;SDS011;31343;47.520;19.144;2023-08-24T02:29:34;3.53;;;2.47;;
45618;SDS011;31343;47.520;19.144;2023-08-24T02:32:01;3.05;;;2.53;;
45618;SDS011;31343;47.520;19.144;2023-08-24T02:34:26;3.42;;;2.50;;
45618;SDS011;31343;47.520;19.144;2023-08-24T02:36:52;3.92;;;2.00;;
45618;SDS011;31343;47.520;19.144;2023-08-24T02:39:18;2.45;;;1.70;;
45618;SDS011;31343;47.520;19.144;2023-08-24T02:41:44;3.72;;;2.65;;
45618;SDS011;31343;47.520;19.144;2023-08-24T02:44:09;3.33;;;2.70;;
45618;SDS011;31343;47.520;19.144;2023-08-24T02:46:35;3.95;;;2.38;;
45618;SDS011;31343;47.520;19.144;2023-08-24T02:49:01;3.53;;;2.20;;
45618;SDS011;31343;47.520;19.144;2023-08-24T02:51:26;3.78;;;2.55;;
45618;SDS011;31343;47.520;19.144;2023-08-24T02:53:52;4.00;;;3.00;;
45618;SDS011;31343;47.520;19.144;2023-08-24T02:56:18;3.17;;;2.33;;
45618;SDS011;31343;47.520;19.144;2023-08-24T02:58:44;4.10;;;2.03;;
45618;SDS011;31343;47.520;19.144;2023-08-24T03:01:09;4.93;;;2.58;;
45618;SDS011;31343;47.520;19.144;2023-08-24T03:03:35;3.58;;;2.63;;
45618;SDS011;31343;47.520;19.144;2023-08-24T03:06:05;4.05;;;2.70;;
45618;SDS011;31343;47.520;19.144;2023-08-24T03:08:33;3.50;;;2.10;;
45618;SDS011;31343;47.520;19.144;2023-08-24T03:11:00;3.70;;;2.60;;
45618;SDS011;31343;47.520;19.144;2023-08-24T03:13:26;3.85;;;2.78;;
45618;SDS011;31343;47.520;19.144;2023-08-24T03:15:53;3.50;;;2.55;;
45618;SDS011;31343;47.520;19.144;2023-08-24T03:18:19;3.33;;;2.08;;
45618;SDS011;31343;47.520;19.144;2023-08-24T03:20:45;4.13;;;2.40;;
45618;SDS011;31343;47.520;19.144;2023-08-24T03:23:12;3.95;;;2.78;;
45618;SDS011;31343;47.520;19.144;2023-08-24T03:25:38;4.72;;;2.92;;
45618;SDS011;31343;47.520;19.144;2023-08-24T03:28:05;3.60;;;3.08;;
45618;SDS011;31343;47.520;19.144;2023-08-24T03:30:35;4.50;;;2.58;;
45618;SDS011;31343;47.520;19.144;2023-08-24T03:33:04;4.25;;;2.35;;
45618;SDS011;31343;47.520;19.144;2023-08-24T03:35:30;3.47;;;2.70;;
45618;SDS011;31343;47.520;19.144;2023-08-24T03:37:57;4.05;;;2.83;;
45618;SDS011;31343;47.520;19.144;2023-08-24T03:40:23;3.22;;;2.50;;
45618;SDS011;31343;47.520;19.144;2023-08-24T03:42:49;3.53;;;2.20;;
45618;SDS011;31343;47.520;19.144;2023-08-24T03:45:14;2.30;;;2.00;;
45618;SDS011;31343;47.520;19.144;2023-08-24T03:47:40;5.85;;;3.53;;
45618;SDS011;31343;47.520;19.144;2023-08-24T03:50:06;3.38;;;2.13;;
45618;SDS011;31343;47.520;19.144;2023-08-24T03:52:32;2.83;;;1.73;;
45618;SDS011;31343;47.520;19.144;2023-08-24T03:54:58;3.55;;;2.30;;
45618;SDS011;31343;47.520;19.144;2023-08-24T03:57:24;5.20;;;3.10;;
45618;SDS011;31343;47.520;19.144;2023-08-24T03:59:50;6.00;;;3.00;;
45618;SDS011;31343;47.520;19.144;2023-08-24T04:02:16;4.82;;;3.03;;
45618;SDS011;31343;47.520;19.144;2023-08-24T04:04:41;3.85;;;2.70;;
45618;SDS011;31343;47.520;19.144;2023-08-24T04:07:07;4.53;;;3.08;;
45618;SDS011;31343;47.520;19.144;2023-08-24T04:09:33;3.95;;;2.35;;
45618;SDS011;31343;47.520;19.144;2023-08-24T04:11:58;4.28;;;2.97;;
45618;SDS011;31343;47.520;19.144;2023-08-24T04:14:24;3.67;;;2.72;;
45618;SDS011;31343;47.520;19.144;2023-08-24T04:16:50;5.97;;;2.33;;
45618;SDS011;31343;47.520;19.144;2023-08-24T04:19:16;3.97;;;2.20;;
45618;SDS011;31343;47.520;19.144;2023-08-24T04:21:41;3.83;;;2.58;;
45618;SDS011;31343;47.520;19.144;2023-08-24T04:24:07;3.53;;;2.53;;
45618;SDS011;31343;47.520;19.144;2023-08-24T04:26:33;4.07;;;2.53;;
45618;SDS011;31343;47.520;19.144;2023-08-24T04:28:59;3.42;;;2.60;;
45618;SDS011;31343;47.520;19.144;2023-08-24T04:31:25;4.32;;;2.88;;
45618;SDS011;31343;47.520;19.144;2023-08-24T04:33:50;3.70;;;2.90;;
45618;SDS011;31343;47.520;19.144;2023-08-24T04:36:16;4.38;;;2.78;;
45618;SDS011;31343;47.520;19.144;2023-08-24T04:38:42;3.53;;;2.47;;
45618;SDS011;31343;47.520;19.144;2023-08-24T04:41:09;3.40;;;2.30;;
45618;SDS011;31343;47.520;19.144;2023-08-24T04:43:35;4.07;;;3.00;;
45618;SDS011;31343;47.520;19.144;2023-08-24T04:46:01;3.55;;;2.33;;
45618;SDS011;31343;47.520;19.144;2023-08-24T04:48:27;4.85;;;2.42;;
45618;SDS011;31343;47.520;19.144;2023-08-24T04:50:57;4.18;;;3.17;;
45618;SDS011;31343;47.520;19.144;2023-08-24T04:53:24;4.03;;;2.58;;
45618;SDS011;31343;47.520;19.144;2023-08-24T04:55:49;3.78;;;2.47;;
45618;SDS011;31343;47.520;19.144;2023-08-24T04:58:15;5.15;;;3.15;;
45618;SDS011;31343;47.520;19.144;2023-08-24T05:00:41;3.40;;;2.35;;
45618;SDS011;31343;47.520;19.144;2023-08-24T05:03:08;4.10;;;2.35;;
45618;SDS011;31343;47.520;19.144;2023-08-24T05:05:35;5.35;;;3.42;;
45618;SDS011;31343;47.520;19.144;2023-08-24T05:08:02;3.97;;;2.55;;
45618;SDS011;31343;47.520;19.144;2023-08-24T05:10:31;3.58;;;2.30;;
45618;SDS011;31343;47.520;19.144;2023-08-24T05:12:58;3.22;;;2.20;;
45618;SDS011;31343;47.520;19.144;2023-08-24T05:15:24;4.03;;;2.72;;
45618;SDS011;31343;47.520;19.144;2023-08-24T05:17:51;4.25;;;2.40;;
45618;SDS011;31343;47.520;19.144;2023-08-24T05:20:22;4.38;;;2.63;;
45618;SDS011;31343;47.520;19.144;2023-08-24T05:22:48;3.67;;;2.17;;
45618;SDS011;31343;47.520;19.144;2023-08-24T05:25:13;3.10;;;2.17;;
45618;SDS011;31343;47.520;19.144;2023-08-24T05:27:41;3.83;;;2.58;;
45618;SDS011;31343;47.520;19.144;2023-08-24T05:30:07;3.05;;;2.00;;
45618;SDS011;31343;47.520;19.144;2023-08-24T05:32:34;3.63;;;2.33;;
45618;SDS011;31343;47.520;19.144;2023-08-24T05:35:06;2.42;;;1.60;;
45618;SDS011;31343;47.520;19.144;2023-08-24T05:37:33;3.03;;;1.83;;
45618;SDS011;31343;47.520;19.144;2023-08-24T05:40:00;3.13;;;2.30;;
45618;SDS011;31343;47.520;19.144;2023-08-24T05:42:27;3.13;;;1.98;;
45618;SDS011;31343;47.520;19.144;2023-08-24T05:44:53;2.63;;;2.00;;
45618;SDS011;31343;47.520;19.144;2023-08-24T05:47:19;3.25;;;2.05;;
45618;SDS011;31343;47.520;19.144;2023-08-24T05:49:45;3.38;;;1.75;;
45618;SDS011;31343;47.520;19.144;2023-08-24T05:52:10;3.42;;;2.60;;
45618;SDS011;31343;47.520;19.144;2023-08-24T05:54:37;2.83;;;1.80;;
45618;SDS011;31343;47.520;19.144;2023-08-24T05:57:03;2.10;;;1.45;;
45618;SDS011;31343;47.520;19.144;2023-08-24T05:59:29;2.17;;;1.55;;
45618;SDS011;31343;47.520;19.144;2023-08-24T06:01:55;2.60;;;1.67;;
45618;SDS011;31343;47.520;19.144;2023-08-24T06:04:21;2.22;;;1.35;;
45618;SDS011;31343;47.520;19.144;2023-08-24T06:06:47;3.05;;;2.10;;
45618;SDS011;31343;47.520;19.144;2023-08-24T06:09:13;2.60;;;1.92;;
45618;SDS011;31343;47.520;19.144;2023-08-24T06:11:40;2.47;;;1.58;;
45618;SDS011;31343;47.520;19.144;2023-08-24T06:14:05;3.03;;;2.15;;
45618;SDS011;31343;47.520;19.144;2023-08-24T06:16:31;2.92;;;1.90;;
45618;SDS011;31343;47.520;19.144;2023-08-24T06:18:57;3.08;;;2.03;;
45618;SDS011;31343;47.520;19.144;2023-08-24T06:21:23;2.70;;;1.50;;
45618;SDS011;31343;47.520;19.144;2023-08-24T06:23:49;2.40;;;1.75;;
45618;SDS011;31343;47.520;19.144;2023-08-24T06:26:14;2.67;;;1.58;;
45618;SDS011;31343;47.520;19.144;2023-08-24T06:28:40;2.90;;;1.90;;
45618;SDS011;31343;47.520;19.144;2023-08-24T06:31:06;2.47;;;1.80;;
45618;SDS011;31343;47.520;19.144;2023-08-24T06:33:36;2.33;;;1.73;;
45618;SDS011;31343;47.520;19.144;2023-08-24T06:36:03;4.57;;;2.13;;
45618;SDS011;31343;47.520;19.144;2023-08-24T06:38:30;2.58;;;1.80;;
45618;SDS011;31343;47.520;19.144;2023-08-24T06:40:59;2.75;;;1.75;;
45618;SDS011;31343;47.520;19.144;2023-08-24T06:43:26;3.25;;;1.83;;
45618;SDS011;31343;47.520;19.144;2023-08-24T06:45:53;2.40;;;1.48;;
45618;SDS011;31343;47.520;19.144;2023-08-24T06:48:19;2.53;;;1.75;;
45618;SDS011;31343;47.520;19.144;2023-08-24T06:50:45;3.67;;;2.20;;
45618;SDS011;31343;47.520;19.144;2023-08-24T06:53:12;2.10;;;1.65;;
45618;SDS011;31343;47.520;19.144;2023-08-24T06:55:37;3.42;;;2.20;;
45618;SDS011;31343;47.520;19.144;2023-08-24T06:58:03;1.70;;;1.30;;
45618;SDS011;31343;47.520;19.144;2023-08-24T07:00:30;2.30;;;1.73;;
45618;SDS011;31343;47.520;19.144;2023-08-24T07:02:56;3.00;;;1.92;;
45618;SDS011;31343;47.520;19.144;2023-08-24T07:05:25;2.58;;;1.58;;
45618;SDS011;31343;47.520;19.144;2023-08-24T07:07:51;2.70;;;1.83;;
45618;SDS011;31343;47.520;19.144;2023-08-24T07:10:19;1.83;;;1.27;;
45618;SDS011;31343;47.520;19.144;2023-08-24T07:12:45;2.05;;;1.40;;
45618;SDS011;31343;47.520;19.144;2023-08-24T07:15:13;2.65;;;1.73;;
45618;SDS011;31343;47.520;19.144;2023-08-24T07:17:39;2.25;;;1.65;;
45618;SDS011;31343;47.520;19.144;2023-08-24T07:20:06;2.70;;;1.60;;
45618;SDS011;31343;47.520;19.144;2023-08-24T07:22:33;2.38;;;1.70;;
45618;SDS011;31343;47.520;19.144;2023-08-24T07:24:59;1.92;;;1.52;;
45618;SDS011;31343;47.520;19.144;2023-08-24T07:27:25;2.20;;;1.50;;
45618;SDS011;31343;47.520;19.144;2023-08-24T07:29:53;2.40;;;1.58;;
45618;SDS011;31343;47.520;19.144;2023-08-24T07:32:18;3.03;;;1.85;;
45618;SDS011;31343;47.520;19.144;2023-08-24T07:34:44;2.85;;;1.95;;
45618;SDS011;31343;47.520;19.144;2023-08-24T07:37:10;2.63;;;1.60;;
45618;SDS011;31343;47.520;19.144;2023-08-24T07:39:37;2.25;;;1.60;;
45618;SDS011;31343;47.520;19.144;2023-08-24T07:42:03;2.60;;;1.73;;
45618;SDS011;31343;47.520;19.144;2023-08-24T07:44:29;2.60;;;1.80;;
45618;SDS011;31343;47.520;19.144;2023-08-24T07:46:55;2.92;;;1.98;;
45618;SDS011;31343;47.520;19.144;2023-08-24T07:49:21;2.15;;;1.55;;
45618;SDS011;31343;47.520;19.144;2023-08-24T07:51:47;2.65;;;1.65;;
45618;SDS011;31343;47.520;19.144;2023-08-24T07:54:13;3.85;;;1.88;;
45618;SDS011;31343;47.520;19.144;2023-08-24T07:56:38;3.10;;;2.00;;
45618;SDS011;31343;47.520;19.144;2023-08-24T07:59:04;2.38;;;1.63;;
45618;SDS011;31343;47.520;19.144;2023-08-24T08:01:30;3.00;;;2.05;;
45618;SDS011;31343;47.520;19.144;2023-08-24T08:03:56;2.80;;;1.90;;
45618;SDS011;31343;47.520;19.144;2023-08-24T08:06:21;1.80;;;1.30;;
45618;SDS011;31343;47.520;19.144;2023-08-24T08:08:49;5.93;;;2.53;;
45618;SDS011;31343;47.520;19.144;2023-08-24T08:11:16;4.90;;;2.10;;
45618;SDS011;31343;47.520;19.144;2023-08-24T08:13:43;2.70;;;1.48;;
45618;SDS011;31343;47.520;19.144;2023-08-24T08:16:09;4.20;;;1.83;;
45618;SDS011;31343;47.520;19.144;2023-08-24T08:18:35;2.50;;;1.67;;
45618;SDS011;31343;47.520;19.144;2023-08-24T08:21:08;2.92;;;2.05;;
45618;SDS011;31343;47.520;19.144;2023-08-24T08:26:00;2.50;;;1.98;;
45618;SDS011;31343;47.520;19.144;2023-08-24T08:28:25;2.03;;;1.52;;
45618;SDS011;31343;47.520;19.144;2023-08-24T08:30:51;2.30;;;1.70;;
45618;SDS011;31343;47.520;19.144;2023-08-24T08:33:18;2.15;;;1.45;;
45618;SDS011;31343;47.520;19.144;2023-08-24T08:35:46;3.30;;;1.90;;
45618;SDS011;31343;47.520;19.144;2023-08-24T08:38:12;2.63;;;1.75;;
45618;SDS011;31343;47.520;19.144;2023-08-24T08:40:38;2.05;;;1.52;;
45618;SDS011;31343;47.520;19.144;2023-08-24T08:43:06;3.08;;;2.00;;
45618;SDS011;31343;47.520;19.144;2023-08-24T08:45:32;2.50;;;1.80;;
45618;SDS011;31343;47.520;19.144;2023-08-24T08:47:59;3.38;;;2.47;;
45618;SDS011;31343;47.520;19.144;2023-08-24T08:50:26;2.58;;;1.85;;
45618;SDS011;31343;47.520;19.144;2023-08-24T08:52:52;2.25;;;1.63;;
45618;SDS011;31343;47.520;19.144;2023-08-24T08:55:18;2.67;;;1.70;;
45618;SDS011;31343;47.520;19.144;2023-08-24T08:57:45;1.73;;;1.30;;
45618;SDS011;31343;47.520;19.144;2023-08-24T09:00:13;2.60;;;1.48;;
45618;SDS011;31343;47.520;19.144;2023-08-24T09:02:43;3.17;;;1.40;;
45618;SDS011;31343;47.520;19.144;2023-08-24T09:05:11;2.30;;;1.40;;
45618;SDS011;31343;47.520;19.144;2023-08-24T09:07:40;1.55;;;1.25;;
45618;SDS011;31343;47.520;19.144;2023-08-24T09:10:06;2.45;;;1.50;;
45618;SDS011;31343;47.520;19.144;2023-08-24T09:12:33;1.73;;;1.30;;
45618;SDS011;31343;47.520;19.144;2023-08-24T09:14:59;2.50;;;1.50;;
45618;SDS011;31343;47.520;19.144;2023-08-24T09:17:28;2.28;;;1.40;;
45618;SDS011;31343;47.520;19.144;2023-08-24T09:19:58;2.22;;;1.55;;
45618;SDS011;31343;47.520;19.144;2023-08-24T09:22:25;2.70;;;1.80;;
45618;SDS011;31343;47.520;19.144;2023-08-24T09:24:51;5.25;;;1.40;;
45618;SDS011;31343;47.520;19.144;2023-08-24T09:27:17;2.58;;;1.70;;
45618;SDS011;31343;47.520;19.144;2023-08-24T09:29:50;2.80;;;1.70;;
45618;SDS011;31343;47.520;19.144;2023-08-24T09:32:30;3.22;;;1.50;;
45618;SDS011;31343;47.520;19.144;2023-08-24T09:35:03;2.63;;;2.05;;
45618;SDS011;31343;47.520;19.144;2023-08-24T09:37:33;2.80;;;1.70;;
45618;SDS011;31343;47.520;19.144;2023-08-24T09:40:03;2.10;;;1.30;;
45618;SDS011;31343;47.520;19.144;2023-08-24T09:42:42;2.08;;;1.33;;
45618;SDS011;31343;47.520;19.144;2023-08-24T09:45:11;2.65;;;1.70;;
45618;SDS011;31343;47.520;19.144;2023-08-24T09:47:38;2.08;;;1.50;;
45618;SDS011;31343;47.520;19.144;2023-08-24T09:50:04;2.55;;;1.35;;
45618;SDS011;31343;47.520;19.144;2023-08-24T09:52:33;2.60;;;1.60;;
45618;SDS011;31343;47.520;19.144;2023-08-24T09:55:06;7.25;;;1.50;;
45618;SDS011;31343;47.520;19.144;2023-08-24T09:57:36;2.33;;;1.60;;
45618;SDS011;31343;47.520;19.144;2023-08-24T10:00:07;3.05;;;1.48;;
45618;SDS011;31343;47.520;19.144;2023-08-24T10:03:00;1.77;;;1.33;;
45618;SDS011;31343;47.520;19.144;2023-08-24T10:05:26;2.03;;;1.52;;
45618;SDS011;31343;47.520;19.144;2023-08-24T10:07:55;2.30;;;1.10;;
45618;SDS011;31343;47.520;19.144;2023-08-24T10:10:21;2.33;;;1.60;;
45618;SDS011;31343;47.520;19.144;2023-08-24T10:12:51;2.38;;;1.95;;
45618;SDS011;31343;47.520;19.144;2023-08-24T10:15:21;3.08;;;1.75;;
45618;SDS011;31343;47.520;19.144;2023-08-24T10:17:48;2.10;;;1.40;;
45618;SDS011;31343;47.520;19.144;2023-08-24T10:20:16;2.88;;;1.70;;
45618;SDS011;31343;47.520;19.144;2023-08-24T10:22:45;2.05;;;1.50;;
45618;SDS011;31343;47.520;19.144;2023-08-24T10:25:12;2.20;;;1.35;;
45618;SDS011;31343;47.520;19.144;2023-08-24T10:27:39;2.63;;;1.80;;
45618;SDS011;31343;47.520;19.144;2023-08-24T10:30:09;2.47;;;1.70;;
45618;SDS011;31343;47.520;19.144;2023-08-24T10:32:36;2.05;;;1.50;;
45618;SDS011;31343;47.520;19.144;2023-08-24T10:35:03;3.45;;;2.22;;
45618;SDS011;31343;47.520;19.144;2023-08-24T10:37:29;2.42;;;1.75;;
45618;SDS011;31343;47.520;19.144;2023-08-24T10:39:56;2.13;;;1.30;;
45618;SDS011;31343;47.520;19.144;2023-08-24T10:42:21;2.65;;;1.83;;
45618;SDS011;31343;47.520;19.144;2023-08-24T10:44:47;1.80;;;1.60;;
45618;SDS011;31343;47.520;19.144;2023-08-24T10:47:21;2.33;;;1.58;;
45618;SDS011;31343;47.520;19.144;2023-08-24T10:52:23;2.20;;;1.33;;
45618;SDS011;31343;47.520;19.144;2023-08-24T10:54:50;2.35;;;1.35;;
45618;SDS011;31343;47.520;19.144;2023-08-24T10:57:25;1.40;;;1.17;;
45618;SDS011;31343;47.520;19.144;2023-08-24T10:59:59;2.63;;;1.50;;
45618;SDS011;31343;47.520;19.144;2023-08-24T11:02:30;2.85;;;2.10;;
45618;SDS011;31343;47.520;19.144;2023-08-24T11:05:20;2.05;;;1.33;;
45618;SDS011;31343;47.520;19.144;2023-08-24T11:07:56;2.45;;;1.80;;
45618;SDS011;31343;47.520;19.144;2023-08-24T11:10:24;2.60;;;1.20;;
45618;SDS011;31343;47.520;19.144;2023-08-24T11:15:36;2.20;;;1.20;;
45618;SDS011;31343;47.520;19.144;2023-08-24T11:20:40;1.80;;;1.17;;
45618;SDS011;31343;47.520;19.144;2023-08-24T11:23:12;3.10;;;1.65;;
45618;SDS011;31343;47.520;19.144;2023-08-24T11:25:39;1.33;;;1.00;;
45618;SDS011;31343;47.520;19.144;2023-08-24T11:28:05;3.92;;;1.42;;
45618;SDS011;31343;47.520;19.144;2023-08-24T11:30:31;1.98;;;1.00;;
45618;SDS011;31343;47.520;19.144;2023-08-24T11:33:00;2.40;;;1.30;;
45618;SDS011;31343;47.520;19.144;2023-08-24T11:35:27;1.73;;;1.38;;
45618;SDS011;31343;47.520;19.144;2023-08-24T11:37:53;2.53;;;1.58;;
45618;SDS011;31343;47.520;19.144;2023-08-24T11:40:22;1.73;;;1.10;;
45618;SDS011;31343;47.520;19.144;2023-08-24T11:42:54;1.70;;;1.10;;
45618;SDS011;31343;47.520;19.144;2023-08-24T11:45:21;1.98;;;1.33;;
45618;SDS011;31343;47.520;19.144;2023-08-24T11:47:47;1.45;;;1.00;;
45618;SDS011;31343;47.520;19.144;2023-08-24T11:50:14;6.43;;;1.65;;
45618;SDS011;31343;47.520;19.144;2023-08-24T11:52:40;2.95;;;1.58;;
45618;SDS011;31343;47.520;19.144;2023-08-24T11:55:09;1.45;;;0.90;;
45618;SDS011;31343;47.520;19.144;2023-08-24T11:57:36;1.52;;;1.00;;
45618;SDS011;31343;47.520;19.144;2023-08-24T12:00:02;1.58;;;1.20;;
45618;SDS011;31343;47.520;19.144;2023-08-24T12:02:29;1.90;;;1.20;;
45618;SDS011;31343;47.520;19.144;2023-08-24T12:04:58;1.80;;;1.10;;
45618;SDS011;31343;47.520;19.144;2023-08-24T12:07:24;1.92;;;1.10;;
45618;SDS011;31343;47.520;19.144;2023-08-24T12:09:51;1.23;;;1.00;;
45618;SDS011;31343;47.520;19.144;2023-08-24T12:12:18;1.63;;;1.00;;
45618;SDS011;31343;47.520;19.144;2023-08-24T12:14:48;1.35;;;0.88;;
45618;SDS011;31343;47.520;19.144;2023-08-24T12:17:15;1.60;;;0.98;;
45618;SDS011;31343;47.520;19.144;2023-08-24T12:19:44;1.65;;;0.85;;
45618;SDS011;31343;47.520;19.144;2023-08-24T12:22:14;1.40;;;1.02;;
45618;SDS011;31343;47.520;19.144;2023-08-24T12:24:43;1.17;;;0.70;;
45618;SDS011;31343;47.520;19.144;2023-08-24T12:27:17;1.98;;;1.27;;
45618;SDS011;31343;47.520;19.144;2023-08-24T12:29:47;2.13;;;0.93;;
45618;SDS011;31343;47.520;19.144;2023-08-24T12:32:13;1.02;;;0.85;;
45618;SDS011;31343;47.520;19.144;2023-08-24T12:34:40;1.35;;;0.85;;
45618;SDS011;31343;47.520;19.144;2023-08-24T12:37:06;1.23;;;0.82;;
45618;SDS011;31343;47.520;19.144;2023-08-24T12:39:35;1.42;;;0.88;;
45618;SDS011;31343;47.520;19.144;2023-08-24T12:42:02;1.52;;;1.00;;
45618;SDS011;31343;47.520;19.144;2023-08-24T12:44:28;1.13;;;0.85;;
45618;SDS011;31343;47.520;19.144;2023-08-24T12:46:54;1.52;;;0.90;;
45618;SDS011;31343;47.520;19.144;2023-08-24T12:49:20;1.40;;;1.00;;
45618;SDS011;31343;47.520;19.144;2023-08-24T12:51:46;1.88;;;1.48;;
45618;SDS011;31343;47.520;19.144;2023-08-24T12:54:12;2.00;;;1.27;;
45618;SDS011;31343;47.520;19.144;2023-08-24T12:56:41;1.38;;;0.90;;
45618;SDS011;31343;47.520;19.144;2023-08-24T12:59:07;2.15;;;1.33;;
45618;SDS011;31343;47.520;19.144;2023-08-24T13:01:33;1.58;;;1.48;;
45618;SDS011;31343;47.520;19.144;2023-08-24T13:03:58;1.73;;;0.93;;
45618;SDS011;31343;47.520;19.144;2023-08-24T13:06:24;1.80;;;1.00;;
45618;SDS011;31343;47.520;19.144;2023-08-24T13:08:50;2.30;;;1.55;;
45618;SDS011;31343;47.520;19.144;2023-08-24T13:11:17;1.88;;;1.10;;
45618;SDS011;31343;47.520;19.144;2023-08-24T13:13:43;2.05;;;1.30;;
45618;SDS011;31343;47.520;19.144;2023-08-24T13:16:10;1.73;;;1.10;;
45618;SDS011;31343;47.520;19.144;2023-08-24T13:18:36;1.58;;;1.13;;
45618;SDS011;31343;47.520;19.144;2023-08-24T13:21:02;2.05;;;1.20;;
45618;SDS011;31343;47.520;19.144;2023-08-24T13:23:27;2.05;;;1.23;;
45618;SDS011;31343;47.520;19.144;2023-08-24T13:25:53;1.33;;;0.82;;
45618;SDS011;31343;47.520;19.144;2023-08-24T13:28:22;1.55;;;1.05;;
45618;SDS011;31343;47.520;19.144;2023-08-24T13:30:48;2.42;;;1.20;;
45618;SDS011;31343;47.520;19.144;2023-08-24T13:33:14;2.17;;;1.38;;
45618;SDS011;31343;47.520;19.144;2023-08-24T13:35:40;3.13;;;1.77;;
45618;SDS011;31343;47.520;19.144;2023-08-24T13:38:06;1.90;;;1.30;;
45618;SDS011;31343;47.520;19.144;2023-08-24T13:40:32;1.23;;;1.02;;
45618;SDS011;31343;47.520;19.144;2023-08-24T13:42:58;1.80;;;1.30;;
45618;SDS011;31343;47.520;19.144;2023-08-24T13:45:23;1.50;;;1.17;;
45618;SDS011;31343;47.520;19.144;2023-08-24T13:47:49;1.42;;;0.82;;
45618;SDS011;31343;47.520;19.144;2023-08-24T13:50:15;3.15;;;1.80;;
45618;SDS011;31343;47.520;19.144;2023-08-24T13:52:41;2.08;;;1.25;;
45618;SDS011;31343;47.520;19.144;2023-08-24T13:55:07;2.28;;;1.38;;
45618;SDS011;31343;47.520;19.144;2023-08-24T13:57:33;2.28;;;1.15;;
45618;SDS011;31343;47.520;19.144;2023-08-24T13:59:58;2.08;;;1.45;;
45618;SDS011;31343;47.520;19.144;2023-08-24T14:02:25;1.88;;;1.15;;
45618;SDS011;31343;47.520;19.144;2023-08-24T14:04:50;1.55;;;1.20;;
45618;SDS011;31343;47.520;19.144;2023-08-24T14:07:16;1.50;;;1.05;;
45618;SDS011;31343;47.520;19.144;2023-08-24T14:09:42;1.83;;;1.55;;
45618;SDS011;31343;47.520;19.144;2023-08-24T14:12:07;1.52;;;0.93;;
45618;SDS011;31343;47.520;19.144;2023-08-24T14:14:33;2.10;;;1.55;;
45618;SDS011;31343;47.520;19.144;2023-08-24T14:16:59;1.40;;;1.02;;
45618;SDS011;31343;47.520;19.144;2023-08-24T14:19:25;4.45;;;1.85;;
45618;SDS011;31343;47.520;19.144;2023-08-24T14:21:51;2.30;;;1.30;;
45618;SDS011;31343;47.520;19.144;2023-08-24T14:24:17;2.47;;;1.52;;
45618;SDS011;31343;47.520;19.144;2023-08-24T14:26:43;3.15;;;1.48;;
45618;SDS011;31343;47.520;19.144;2023-08-24T14:29:12;1.92;;;1.10;;
45618;SDS011;31343;47.520;19.144;2023-08-24T14:31:38;1.65;;;1.17;;
45618;SDS011;31343;47.520;19.144;2023-08-24T14:34:04;2.00;;;1.17;;
45618;SDS011;31343;47.520;19.144;2023-08-24T14:36:30;2.30;;;1.52;;
45618;SDS011;31343;47.520;19.144;2023-08-24T14:38:56;2.10;;;1.20;;
45618;SDS011;31343;47.520;19.144;2023-08-24T14:41:23;2.30;;;1.30;;
45618;SDS011;31343;47.520;19.144;2023-08-24T14:43:48;4.25;;;1.45;;
45618;SDS011;31343;47.520;19.144;2023-08-24T14:46:14;1.75;;;1.20;;
45618;SDS011;31343;47.520;19.144;2023-08-24T14:48:40;2.42;;;1.77;;